sensor_id;sensor_type;location;lat;lon;timestamp;P1;durP1;ratioP1;P2;durP2;ratioP2
17451;SDS011;8843;48.838;9.324;2023-12-20T00:01:01;1.40;;;1.30;;
17451;SDS011;8843;48.838;9.324;2023-12-20T00:03:28;2.20;;;1.60;;
17451;SDS011;8843;48.838;9.324;2023-12-20T00:05:55;1.97;;;1.23;;
17451;SDS011;8843;48.838;9.324;2023-12-20T00:08:22;1.50;;;1.40;;
17451;SDS011;8843;48.838;9.324;2023-12-20T00:10:49;1.90;;;1.70;;
17451;SDS011;8843;48.838;9.324;2023-12-20T00:13:17;3.30;;;1.60;;
17451;SDS011;8843;48.838;9.324;2023-12-20T00:15:44;1.73;;;1.60;;
17451;SDS011;8843;48.838;9.324;2023-12-20T00:18:11;1.90;;;1.70;;
17451;SDS011;8843;48.838;9.324;2023-12-20T00:20:38;2.13;;;1.73;;
17451;SDS011;8843;48.838;9.324;2023-12-20T00:23:05;1.90;;;1.70;;
17451;SDS011;8843;48.838;9.324;2023-12-20T00:25:33;2.13;;;1.60;;
17451;SDS011;8843;48.838;9.324;2023-12-20T00:27:59;1.50;;;1.33;;
17451;SDS011;8843;48.838;9.324;2023-12-20T00:30:28;1.50;;;1.40;;
17451;SDS011;8843;48.838;9.324;2023-12-20T00:32:55;2.27;;;1.70;;
17451;SDS011;8843;48.838;9.324;2023-12-20T00:35:22;1.90;;;1.80;;
17451;SDS011;8843;48.838;9.324;2023-12-20T00:37:49;1.70;;;1.60;;
17451;SDS011;8843;48.838;9.324;2023-12-20T00:40:16;1.57;;;1.47;;
17451;SDS011;8843;48.838;9.324;2023-12-20T00:42:43;1.63;;;1.53;;
17451;SDS011;8843;48.838;9.324;2023-12-20T00:45:11;2.00;;;1.70;;
17451;SDS011;8843;48.838;9.324;2023-12-20T00:47:40;2.80;;;1.70;;
17451;SDS011;8843;48.838;9.324;2023-12-20T00:50:08;1.67;;;1.50;;
17451;SDS011;8843;48.838;9.324;2023-12-20T00:52:35;1.70;;;1.53;;
17451;SDS011;8843;48.838;9.324;2023-12-20T00:55:02;2.60;;;1.40;;
17451;SDS011;8843;48.838;9.324;2023-12-20T00:57:30;1.60;;;1.50;;
17451;SDS011;8843;48.838;9.324;2023-12-20T00:59:57;2.00;;;1.80;;
17451;SDS011;8843;48.838;9.324;2023-12-20T01:02:24;2.40;;;1.70;;
17451;SDS011;8843;48.838;9.324;2023-12-20T01:04:52;1.77;;;1.60;;
17451;SDS011;8843;48.838;9.324;2023-12-20T01:07:19;2.30;;;1.53;;
17451;SDS011;8843;48.838;9.324;2023-12-20T01:09:46;1.70;;;1.60;;
17451;SDS011;8843;48.838;9.324;2023-12-20T01:12:13;1.57;;;1.47;;
17451;SDS011;8843;48.838;9.324;2023-12-20T01:14:40;2.90;;;1.70;;
17451;SDS011;8843;48.838;9.324;2023-12-20T01:17:07;2.13;;;1.70;;
17451;SDS011;8843;48.838;9.324;2023-12-20T01:19:34;1.70;;;1.50;;
17451;SDS011;8843;48.838;9.324;2023-12-20T01:22:02;2.73;;;1.70;;
17451;SDS011;8843;48.838;9.324;2023-12-20T01:24:30;2.13;;;1.80;;
17451;SDS011;8843;48.838;9.324;2023-12-20T01:26:57;2.10;;;1.70;;
17451;SDS011;8843;48.838;9.324;2023-12-20T01:29:24;1.83;;;1.50;;
17451;SDS011;8843;48.838;9.324;2023-12-20T01:31:50;1.60;;;1.50;;
17451;SDS011;8843;48.838;9.324;2023-12-20T01:34:17;1.83;;;1.60;;
17451;SDS011;8843;48.838;9.324;2023-12-20T01:36:44;2.23;;;1.40;;
17451;SDS011;8843;48.838;9.324;2023-12-20T01:39:12;1.70;;;1.60;;
17451;SDS011;8843;48.838;9.324;2023-12-20T01:41:39;1.97;;;1.77;;
17451;SDS011;8843;48.838;9.324;2023-12-20T01:44:06;1.63;;;1.53;;
17451;SDS011;8843;48.838;9.324;2023-12-20T01:46:33;1.67;;;1.57;;
17451;SDS011;8843;48.838;9.324;2023-12-20T01:49:00;2.63;;;1.57;;
17451;SDS011;8843;48.838;9.324;2023-12-20T01:51:27;2.80;;;2.33;;
17451;SDS011;8843;48.838;9.324;2023-12-20T01:53:54;2.00;;;1.80;;
17451;SDS011;8843;48.838;9.324;2023-12-20T01:56:25;1.60;;;1.50;;
17451;SDS011;8843;48.838;9.324;2023-12-20T01:58:52;1.80;;;1.70;;
17451;SDS011;8843;48.838;9.324;2023-12-20T02:01:20;1.80;;;1.70;;
17451;SDS011;8843;48.838;9.324;2023-12-20T02:03:47;1.70;;;1.60;;
17451;SDS011;8843;48.838;9.324;2023-12-20T02:06:14;1.90;;;1.70;;
17451;SDS011;8843;48.838;9.324;2023-12-20T02:08:42;2.00;;;1.47;;
17451;SDS011;8843;48.838;9.324;2023-12-20T02:11:09;1.60;;;1.50;;
17451;SDS011;8843;48.838;9.324;2023-12-20T02:13:38;2.00;;;1.67;;
17451;SDS011;8843;48.838;9.324;2023-12-20T02:16:04;1.87;;;1.67;;
17451;SDS011;8843;48.838;9.324;2023-12-20T02:18:32;1.83;;;1.73;;
17451;SDS011;8843;48.838;9.324;2023-12-20T02:20:59;2.00;;;1.80;;
17451;SDS011;8843;48.838;9.324;2023-12-20T02:23:27;1.90;;;1.80;;
17451;SDS011;8843;48.838;9.324;2023-12-20T02:25:54;2.03;;;1.60;;
17451;SDS011;8843;48.838;9.324;2023-12-20T02:28:21;3.73;;;1.70;;
17451;SDS011;8843;48.838;9.324;2023-12-20T02:30:48;2.13;;;2.00;;
17451;SDS011;8843;48.838;9.324;2023-12-20T02:33:15;2.70;;;2.00;;
17451;SDS011;8843;48.838;9.324;2023-12-20T02:35:42;2.80;;;2.40;;
17451;SDS011;8843;48.838;9.324;2023-12-20T02:38:09;2.40;;;2.20;;
17451;SDS011;8843;48.838;9.324;2023-12-20T02:40:37;2.67;;;2.47;;
17451;SDS011;8843;48.838;9.324;2023-12-20T02:43:04;2.30;;;2.10;;
17451;SDS011;8843;48.838;9.324;2023-12-20T02:45:31;2.97;;;2.50;;
17451;SDS011;8843;48.838;9.324;2023-12-20T02:47:58;2.53;;;2.27;;
17451;SDS011;8843;48.838;9.324;2023-12-20T02:50:24;2.93;;;2.63;;
17451;SDS011;8843;48.838;9.324;2023-12-20T02:52:51;2.73;;;2.53;;
17451;SDS011;8843;48.838;9.324;2023-12-20T02:55:18;5.03;;;2.60;;
17451;SDS011;8843;48.838;9.324;2023-12-20T02:57:45;4.33;;;2.77;;
17451;SDS011;8843;48.838;9.324;2023-12-20T03:00:12;2.70;;;2.50;;
17451;SDS011;8843;48.838;9.324;2023-12-20T03:02:40;3.47;;;2.50;;
17451;SDS011;8843;48.838;9.324;2023-12-20T03:05:07;2.80;;;2.60;;
17451;SDS011;8843;48.838;9.324;2023-12-20T03:07:34;2.97;;;2.63;;
17451;SDS011;8843;48.838;9.324;2023-12-20T03:10:03;2.67;;;2.47;;
17451;SDS011;8843;48.838;9.324;2023-12-20T03:12:31;2.57;;;2.30;;
17451;SDS011;8843;48.838;9.324;2023-12-20T03:14:59;2.50;;;2.30;;
17451;SDS011;8843;48.838;9.324;2023-12-20T03:17:26;3.40;;;2.20;;
17451;SDS011;8843;48.838;9.324;2023-12-20T03:19:53;4.03;;;2.07;;
17451;SDS011;8843;48.838;9.324;2023-12-20T03:22:19;1.90;;;1.80;;
17451;SDS011;8843;48.838;9.324;2023-12-20T03:24:46;2.13;;;1.77;;
17451;SDS011;8843;48.838;9.324;2023-12-20T03:27:13;2.50;;;1.87;;
17451;SDS011;8843;48.838;9.324;2023-12-20T03:29:40;1.83;;;1.67;;
17451;SDS011;8843;48.838;9.324;2023-12-20T03:32:08;1.77;;;1.60;;
17451;SDS011;8843;48.838;9.324;2023-12-20T03:34:35;1.30;;;1.20;;
17451;SDS011;8843;48.838;9.324;2023-12-20T03:37:02;1.50;;;1.20;;
17451;SDS011;8843;48.838;9.324;2023-12-20T03:39:29;1.17;;;1.10;;
17451;SDS011;8843;48.838;9.324;2023-12-20T03:41:56;2.10;;;1.03;;
17451;SDS011;8843;48.838;9.324;2023-12-20T03:44:23;4.70;;;0.90;;
17451;SDS011;8843;48.838;9.324;2023-12-20T03:46:50;0.90;;;0.90;;
17451;SDS011;8843;48.838;9.324;2023-12-20T03:49:18;1.03;;;1.03;;
17451;SDS011;8843;48.838;9.324;2023-12-20T03:51:45;0.80;;;0.80;;
17451;SDS011;8843;48.838;9.324;2023-12-20T03:54:12;0.77;;;0.77;;
17451;SDS011;8843;48.838;9.324;2023-12-20T03:56:39;1.20;;;1.10;;
17451;SDS011;8843;48.838;9.324;2023-12-20T03:59:06;1.23;;;0.90;;
17451;SDS011;8843;48.838;9.324;2023-12-20T04:01:32;0.70;;;0.70;;
17451;SDS011;8843;48.838;9.324;2023-12-20T04:03:59;1.10;;;1.00;;
17451;SDS011;8843;48.838;9.324;2023-12-20T04:06:27;1.23;;;0.80;;
17451;SDS011;8843;48.838;9.324;2023-12-20T04:08:54;1.13;;;1.00;;
17451;SDS011;8843;48.838;9.324;2023-12-20T04:11:21;0.87;;;0.87;;
17451;SDS011;8843;48.838;9.324;2023-12-20T04:13:48;0.70;;;0.70;;
17451;SDS011;8843;48.838;9.324;2023-12-20T04:16:15;0.70;;;0.70;;
17451;SDS011;8843;48.838;9.324;2023-12-20T04:18:42;0.77;;;0.77;;
17451;SDS011;8843;48.838;9.324;2023-12-20T04:21:08;0.70;;;0.70;;
17451;SDS011;8843;48.838;9.324;2023-12-20T04:23:37;0.70;;;0.70;;
17451;SDS011;8843;48.838;9.324;2023-12-20T04:26:03;0.63;;;0.63;;
17451;SDS011;8843;48.838;9.324;2023-12-20T04:28:30;0.70;;;0.70;;
17451;SDS011;8843;48.838;9.324;2023-12-20T04:30:57;0.80;;;0.80;;
17451;SDS011;8843;48.838;9.324;2023-12-20T04:33:24;0.50;;;0.50;;
17451;SDS011;8843;48.838;9.324;2023-12-20T04:35:51;0.90;;;0.90;;
17451;SDS011;8843;48.838;9.324;2023-12-20T04:38:17;0.80;;;0.80;;
17451;SDS011;8843;48.838;9.324;2023-12-20T04:40:46;0.90;;;0.90;;
17451;SDS011;8843;48.838;9.324;2023-12-20T04:43:13;0.80;;;0.80;;
17451;SDS011;8843;48.838;9.324;2023-12-20T04:45:40;0.80;;;0.80;;
17451;SDS011;8843;48.838;9.324;2023-12-20T04:48:07;1.30;;;0.77;;
17451;SDS011;8843;48.838;9.324;2023-12-20T04:50:34;0.60;;;0.60;;
17451;SDS011;8843;48.838;9.324;2023-12-20T04:53:00;0.77;;;0.77;;
17451;SDS011;8843;48.838;9.324;2023-12-20T04:55:27;0.70;;;0.70;;
17451;SDS011;8843;48.838;9.324;2023-12-20T04:57:56;0.70;;;0.70;;
17451;SDS011;8843;48.838;9.324;2023-12-20T05:00:23;0.70;;;0.70;;
17451;SDS011;8843;48.838;9.324;2023-12-20T05:02:50;0.77;;;0.77;;
17451;SDS011;8843;48.838;9.324;2023-12-20T05:05:17;0.60;;;0.60;;
17451;SDS011;8843;48.838;9.324;2023-12-20T05:07:44;0.57;;;0.57;;
17451;SDS011;8843;48.838;9.324;2023-12-20T05:10:11;0.70;;;0.70;;
17451;SDS011;8843;48.838;9.324;2023-12-20T05:12:37;0.70;;;0.70;;
17451;SDS011;8843;48.838;9.324;2023-12-20T05:15:06;0.73;;;0.70;;
17451;SDS011;8843;48.838;9.324;2023-12-20T05:17:34;0.70;;;0.70;;
17451;SDS011;8843;48.838;9.324;2023-12-20T05:20:01;0.70;;;0.70;;
17451;SDS011;8843;48.838;9.324;2023-12-20T05:22:28;0.83;;;0.83;;
17451;SDS011;8843;48.838;9.324;2023-12-20T05:24:54;0.90;;;0.90;;
17451;SDS011;8843;48.838;9.324;2023-12-20T05:27:21;0.70;;;0.70;;
17451;SDS011;8843;48.838;9.324;2023-12-20T05:29:48;1.10;;;0.97;;
17451;SDS011;8843;48.838;9.324;2023-12-20T05:32:16;0.93;;;0.93;;
17451;SDS011;8843;48.838;9.324;2023-12-20T05:34:43;0.80;;;0.80;;
17451;SDS011;8843;48.838;9.324;2023-12-20T05:37:10;1.50;;;0.83;;
17451;SDS011;8843;48.838;9.324;2023-12-20T05:39:37;0.70;;;0.70;;
17451;SDS011;8843;48.838;9.324;2023-12-20T05:42:04;0.80;;;0.80;;
17451;SDS011;8843;48.838;9.324;2023-12-20T05:44:31;1.10;;;1.10;;
17451;SDS011;8843;48.838;9.324;2023-12-20T05:46:58;0.90;;;0.90;;
17451;SDS011;8843;48.838;9.324;2023-12-20T05:49:26;0.90;;;0.90;;
17451;SDS011;8843;48.838;9.324;2023-12-20T05:51:53;2.43;;;1.10;;
17451;SDS011;8843;48.838;9.324;2023-12-20T05:54:19;0.90;;;0.90;;
17451;SDS011;8843;48.838;9.324;2023-12-20T05:56:47;0.90;;;0.90;;
17451;SDS011;8843;48.838;9.324;2023-12-20T05:59:14;0.80;;;0.80;;
17451;SDS011;8843;48.838;9.324;2023-12-20T06:01:41;1.07;;;0.87;;
17451;SDS011;8843;48.838;9.324;2023-12-20T06:04:07;0.80;;;0.80;;
17451;SDS011;8843;48.838;9.324;2023-12-20T06:06:39;1.30;;;0.80;;
17451;SDS011;8843;48.838;9.324;2023-12-20T06:09:07;0.80;;;0.80;;
17451;SDS011;8843;48.838;9.324;2023-12-20T06:11:34;0.80;;;0.80;;
17451;SDS011;8843;48.838;9.324;2023-12-20T06:14:00;0.87;;;0.87;;
17451;SDS011;8843;48.838;9.324;2023-12-20T06:16:27;0.90;;;0.90;;
17451;SDS011;8843;48.838;9.324;2023-12-20T06:18:54;1.00;;;1.00;;
17451;SDS011;8843;48.838;9.324;2023-12-20T06:21:21;1.10;;;1.10;;
17451;SDS011;8843;48.838;9.324;2023-12-20T06:23:49;1.00;;;1.00;;
17451;SDS011;8843;48.838;9.324;2023-12-20T06:26:16;2.23;;;1.30;;
17451;SDS011;8843;48.838;9.324;2023-12-20T06:28:43;1.13;;;1.03;;
17451;SDS011;8843;48.838;9.324;2023-12-20T06:31:09;1.00;;;1.00;;
17451;SDS011;8843;48.838;9.324;2023-12-20T06:33:36;0.80;;;0.80;;
17451;SDS011;8843;48.838;9.324;2023-12-20T06:36:05;5.23;;;2.27;;
17451;SDS011;8843;48.838;9.324;2023-12-20T06:38:32;0.97;;;0.90;;
17451;SDS011;8843;48.838;9.324;2023-12-20T06:41:01;0.90;;;0.90;;
17451;SDS011;8843;48.838;9.324;2023-12-20T06:43:27;0.77;;;0.77;;
17451;SDS011;8843;48.838;9.324;2023-12-20T06:45:55;0.87;;;0.87;;
17451;SDS011;8843;48.838;9.324;2023-12-20T06:48:22;1.00;;;1.00;;
17451;SDS011;8843;48.838;9.324;2023-12-20T06:50:49;0.87;;;0.87;;
17451;SDS011;8843;48.838;9.324;2023-12-20T06:53:16;1.10;;;1.00;;
17451;SDS011;8843;48.838;9.324;2023-12-20T06:55:42;1.40;;;1.30;;
17451;SDS011;8843;48.838;9.324;2023-12-20T06:58:11;2.50;;;1.10;;
17451;SDS011;8843;48.838;9.324;2023-12-20T07:00:38;1.20;;;1.10;;
17451;SDS011;8843;48.838;9.324;2023-12-20T07:03:04;1.37;;;1.27;;
17451;SDS011;8843;48.838;9.324;2023-12-20T07:05:31;2.97;;;1.30;;
17451;SDS011;8843;48.838;9.324;2023-12-20T07:07:58;0.90;;;0.90;;
17451;SDS011;8843;48.838;9.324;2023-12-20T07:10:25;1.30;;;1.20;;
17451;SDS011;8843;48.838;9.324;2023-12-20T07:12:52;1.20;;;1.10;;
17451;SDS011;8843;48.838;9.324;2023-12-20T07:15:21;1.43;;;1.20;;
17451;SDS011;8843;48.838;9.324;2023-12-20T07:17:48;1.80;;;1.40;;
17451;SDS011;8843;48.838;9.324;2023-12-20T07:20:15;1.73;;;1.63;;
17451;SDS011;8843;48.838;9.324;2023-12-20T07:22:42;2.97;;;2.00;;
17451;SDS011;8843;48.838;9.324;2023-12-20T07:25:09;3.30;;;2.30;;
17451;SDS011;8843;48.838;9.324;2023-12-20T07:27:36;2.90;;;2.70;;
17451;SDS011;8843;48.838;9.324;2023-12-20T07:30:03;2.87;;;2.67;;
17451;SDS011;8843;48.838;9.324;2023-12-20T07:32:32;3.83;;;2.87;;
17451;SDS011;8843;48.838;9.324;2023-12-20T07:34:59;3.03;;;2.73;;
17451;SDS011;8843;48.838;9.324;2023-12-20T07:37:28;3.20;;;2.90;;
17451;SDS011;8843;48.838;9.324;2023-12-20T07:39:57;5.00;;;3.37;;
17451;SDS011;8843;48.838;9.324;2023-12-20T07:42:24;3.63;;;3.33;;
17451;SDS011;8843;48.838;9.324;2023-12-20T07:44:51;3.57;;;3.20;;
17451;SDS011;8843;48.838;9.324;2023-12-20T07:47:18;4.23;;;3.83;;
17451;SDS011;8843;48.838;9.324;2023-12-20T07:49:48;3.33;;;3.03;;
17451;SDS011;8843;48.838;9.324;2023-12-20T07:52:16;3.70;;;3.30;;
17451;SDS011;8843;48.838;9.324;2023-12-20T07:54:43;4.77;;;3.53;;
17451;SDS011;8843;48.838;9.324;2023-12-20T07:57:10;5.30;;;2.83;;
17451;SDS011;8843;48.838;9.324;2023-12-20T07:59:37;4.47;;;3.50;;
17451;SDS011;8843;48.838;9.324;2023-12-20T08:02:04;3.10;;;2.80;;
17451;SDS011;8843;48.838;9.324;2023-12-20T08:04:31;6.33;;;3.40;;
17451;SDS011;8843;48.838;9.324;2023-12-20T08:06:59;3.13;;;2.73;;
17451;SDS011;8843;48.838;9.324;2023-12-20T08:09:27;3.80;;;3.37;;
17451;SDS011;8843;48.838;9.324;2023-12-20T08:11:53;2.87;;;2.67;;
17451;SDS011;8843;48.838;9.324;2023-12-20T08:14:20;2.80;;;2.60;;
17451;SDS011;8843;48.838;9.324;2023-12-20T08:16:47;5.03;;;3.30;;
17451;SDS011;8843;48.838;9.324;2023-12-20T08:19:14;3.23;;;3.03;;
17451;SDS011;8843;48.838;9.324;2023-12-20T08:21:41;3.00;;;2.80;;
17451;SDS011;8843;48.838;9.324;2023-12-20T08:24:09;3.67;;;3.37;;
17451;SDS011;8843;48.838;9.324;2023-12-20T08:26:36;3.67;;;3.27;;
17451;SDS011;8843;48.838;9.324;2023-12-20T08:29:03;3.30;;;3.00;;
17451;SDS011;8843;48.838;9.324;2023-12-20T08:31:29;5.00;;;3.67;;
17451;SDS011;8843;48.838;9.324;2023-12-20T08:33:56;3.87;;;3.27;;
17451;SDS011;8843;48.838;9.324;2023-12-20T08:36:23;3.30;;;3.00;;
17451;SDS011;8843;48.838;9.324;2023-12-20T08:38:50;3.23;;;2.90;;
17451;SDS011;8843;48.838;9.324;2023-12-20T08:41:18;3.20;;;2.90;;
17451;SDS011;8843;48.838;9.324;2023-12-20T08:43:45;5.03;;;3.47;;
17451;SDS011;8843;48.838;9.324;2023-12-20T08:46:13;4.53;;;3.20;;
17451;SDS011;8843;48.838;9.324;2023-12-20T08:48:40;3.17;;;2.97;;
17451;SDS011;8843;48.838;9.324;2023-12-20T08:51:07;3.60;;;3.03;;
17451;SDS011;8843;48.838;9.324;2023-12-20T08:53:34;4.53;;;3.30;;
17451;SDS011;8843;48.838;9.324;2023-12-20T08:56:01;4.20;;;3.60;;
17451;SDS011;8843;48.838;9.324;2023-12-20T08:58:29;5.47;;;3.57;;
17451;SDS011;8843;48.838;9.324;2023-12-20T09:00:56;6.17;;;3.33;;
17451;SDS011;8843;48.838;9.324;2023-12-20T09:03:23;6.43;;;3.70;;
17451;SDS011;8843;48.838;9.324;2023-12-20T09:05:50;3.90;;;3.50;;
17451;SDS011;8843;48.838;9.324;2023-12-20T09:08:17;4.30;;;3.57;;
17451;SDS011;8843;48.838;9.324;2023-12-20T09:10:44;3.83;;;3.27;;
17451;SDS011;8843;48.838;9.324;2023-12-20T09:13:10;4.83;;;3.73;;
17451;SDS011;8843;48.838;9.324;2023-12-20T09:15:39;5.20;;;3.27;;
17451;SDS011;8843;48.838;9.324;2023-12-20T09:18:06;5.83;;;3.93;;
17451;SDS011;8843;48.838;9.324;2023-12-20T09:20:33;3.00;;;2.73;;
17451;SDS011;8843;48.838;9.324;2023-12-20T09:23:00;5.23;;;3.57;;
17451;SDS011;8843;48.838;9.324;2023-12-20T09:25:27;6.90;;;4.17;;
17451;SDS011;8843;48.838;9.324;2023-12-20T09:27:55;4.50;;;3.20;;
17451;SDS011;8843;48.838;9.324;2023-12-20T09:30:22;4.00;;;3.10;;
17451;SDS011;8843;48.838;9.324;2023-12-20T09:32:50;3.87;;;3.43;;
17451;SDS011;8843;48.838;9.324;2023-12-20T09:35:17;4.93;;;3.20;;
17451;SDS011;8843;48.838;9.324;2023-12-20T09:37:44;5.37;;;3.43;;
17451;SDS011;8843;48.838;9.324;2023-12-20T09:40:12;3.77;;;3.40;;
17451;SDS011;8843;48.838;9.324;2023-12-20T09:42:42;6.50;;;3.30;;
17451;SDS011;8843;48.838;9.324;2023-12-20T09:45:14;4.70;;;3.47;;
17451;SDS011;8843;48.838;9.324;2023-12-20T09:47:43;8.77;;;3.23;;
17451;SDS011;8843;48.838;9.324;2023-12-20T09:50:11;4.93;;;3.03;;
17451;SDS011;8843;48.838;9.324;2023-12-20T09:52:39;3.63;;;2.60;;
17451;SDS011;8843;48.838;9.324;2023-12-20T09:55:07;5.33;;;2.20;;
17451;SDS011;8843;48.838;9.324;2023-12-20T09:57:34;6.17;;;2.23;;
17451;SDS011;8843;48.838;9.324;2023-12-20T10:00:02;2.13;;;1.97;;
17451;SDS011;8843;48.838;9.324;2023-12-20T10:02:29;5.20;;;1.90;;
17451;SDS011;8843;48.838;9.324;2023-12-20T10:04:57;8.40;;;2.07;;
17451;SDS011;8843;48.838;9.324;2023-12-20T10:07:26;3.53;;;1.70;;
17451;SDS011;8843;48.838;9.324;2023-12-20T10:09:54;3.23;;;1.80;;
17451;SDS011;8843;48.838;9.324;2023-12-20T10:12:21;3.33;;;1.63;;
17451;SDS011;8843;48.838;9.324;2023-12-20T10:14:48;4.30;;;2.03;;
17451;SDS011;8843;48.838;9.324;2023-12-20T10:17:16;2.67;;;1.73;;
17451;SDS011;8843;48.838;9.324;2023-12-20T10:19:43;2.70;;;1.53;;
17451;SDS011;8843;48.838;9.324;2023-12-20T10:22:10;5.50;;;1.63;;
17451;SDS011;8843;48.838;9.324;2023-12-20T10:24:38;5.27;;;2.30;;
17451;SDS011;8843;48.838;9.324;2023-12-20T10:27:08;5.13;;;1.60;;
17451;SDS011;8843;48.838;9.324;2023-12-20T10:29:35;4.77;;;1.57;;
17451;SDS011;8843;48.838;9.324;2023-12-20T10:32:21;3.20;;;1.37;;
17451;SDS011;8843;48.838;9.324;2023-12-20T10:34:50;2.20;;;1.70;;
17451;SDS011;8843;48.838;9.324;2023-12-20T10:37:17;2.50;;;1.77;;
17451;SDS011;8843;48.838;9.324;2023-12-20T10:39:45;2.90;;;1.40;;
17451;SDS011;8843;48.838;9.324;2023-12-20T10:42:16;3.57;;;1.97;;
17451;SDS011;8843;48.838;9.324;2023-12-20T10:44:44;4.83;;;1.37;;
17451;SDS011;8843;48.838;9.324;2023-12-20T10:47:11;3.13;;;1.43;;
17451;SDS011;8843;48.838;9.324;2023-12-20T10:49:39;3.83;;;1.37;;
17451;SDS011;8843;48.838;9.324;2023-12-20T10:52:07;5.03;;;1.90;;
17451;SDS011;8843;48.838;9.324;2023-12-20T10:54:37;5.60;;;1.90;;
17451;SDS011;8843;48.838;9.324;2023-12-20T10:57:06;6.23;;;2.00;;
17451;SDS011;8843;48.838;9.324;2023-12-20T10:59:35;2.93;;;1.70;;
17451;SDS011;8843;48.838;9.324;2023-12-20T11:02:03;5.20;;;1.87;;
17451;SDS011;8843;48.838;9.324;2023-12-20T11:04:35;3.10;;;1.60;;
17451;SDS011;8843;48.838;9.324;2023-12-20T11:07:10;4.10;;;2.23;;
17451;SDS011;8843;48.838;9.324;2023-12-20T11:09:47;5.90;;;1.70;;
17451;SDS011;8843;48.838;9.324;2023-12-20T11:12:24;5.57;;;1.97;;
17451;SDS011;8843;48.838;9.324;2023-12-20T11:14:58;5.40;;;1.77;;
17451;SDS011;8843;48.838;9.324;2023-12-20T11:17:29;4.07;;;1.60;;
17451;SDS011;8843;48.838;9.324;2023-12-20T11:20:03;5.73;;;1.90;;
17451;SDS011;8843;48.838;9.324;2023-12-20T11:22:32;4.33;;;1.73;;
17451;SDS011;8843;48.838;9.324;2023-12-20T11:25:02;6.13;;;1.60;;
17451;SDS011;8843;48.838;9.324;2023-12-20T11:27:33;4.90;;;1.90;;
17451;SDS011;8843;48.838;9.324;2023-12-20T11:30:00;4.53;;;1.80;;
17451;SDS011;8843;48.838;9.324;2023-12-20T11:32:31;3.27;;;1.70;;
17451;SDS011;8843;48.838;9.324;2023-12-20T11:35:01;7.50;;;2.17;;
17451;SDS011;8843;48.838;9.324;2023-12-20T11:37:43;6.00;;;1.70;;
17451;SDS011;8843;48.838;9.324;2023-12-20T11:40:13;4.60;;;1.60;;
17451;SDS011;8843;48.838;9.324;2023-12-20T11:42:42;5.87;;;2.00;;
17451;SDS011;8843;48.838;9.324;2023-12-20T11:45:10;5.63;;;1.50;;
17451;SDS011;8843;48.838;9.324;2023-12-20T11:47:40;3.03;;;1.73;;
17451;SDS011;8843;48.838;9.324;2023-12-20T11:50:08;2.47;;;1.50;;
17451;SDS011;8843;48.838;9.324;2023-12-20T11:52:35;3.13;;;1.47;;
17451;SDS011;8843;48.838;9.324;2023-12-20T11:55:02;2.80;;;1.50;;
17451;SDS011;8843;48.838;9.324;2023-12-20T11:57:29;2.90;;;1.70;;
17451;SDS011;8843;48.838;9.324;2023-12-20T11:59:58;4.70;;;1.80;;
17451;SDS011;8843;48.838;9.324;2023-12-20T12:02:24;3.33;;;1.57;;
17451;SDS011;8843;48.838;9.324;2023-12-20T12:04:51;3.20;;;1.70;;
17451;SDS011;8843;48.838;9.324;2023-12-20T12:07:18;4.53;;;1.57;;
17451;SDS011;8843;48.838;9.324;2023-12-20T12:09:45;7.90;;;2.10;;
17451;SDS011;8843;48.838;9.324;2023-12-20T12:12:12;2.40;;;1.60;;
17451;SDS011;8843;48.838;9.324;2023-12-20T12:14:40;5.00;;;1.80;;
17451;SDS011;8843;48.838;9.324;2023-12-20T12:17:11;3.93;;;1.60;;
17451;SDS011;8843;48.838;9.324;2023-12-20T12:19:38;5.63;;;1.60;;
17451;SDS011;8843;48.838;9.324;2023-12-20T12:22:06;2.80;;;1.87;;
17451;SDS011;8843;48.838;9.324;2023-12-20T12:24:35;3.97;;;1.77;;
17451;SDS011;8843;48.838;9.324;2023-12-20T12:27:02;7.43;;;1.97;;
17451;SDS011;8843;48.838;9.324;2023-12-20T12:29:30;7.77;;;2.00;;
17451;SDS011;8843;48.838;9.324;2023-12-20T12:31:56;4.27;;;1.67;;
17451;SDS011;8843;48.838;9.324;2023-12-20T12:34:25;3.77;;;1.93;;
17451;SDS011;8843;48.838;9.324;2023-12-20T12:36:53;6.53;;;1.83;;
17451;SDS011;8843;48.838;9.324;2023-12-20T12:39:21;4.17;;;2.20;;
17451;SDS011;8843;48.838;9.324;2023-12-20T12:41:50;2.33;;;1.57;;
17451;SDS011;8843;48.838;9.324;2023-12-20T12:44:17;5.07;;;2.10;;
17451;SDS011;8843;48.838;9.324;2023-12-20T12:46:44;4.77;;;1.87;;
17451;SDS011;8843;48.838;9.324;2023-12-20T12:49:11;4.00;;;1.70;;
17451;SDS011;8843;48.838;9.324;2023-12-20T12:51:40;8.33;;;2.00;;
17451;SDS011;8843;48.838;9.324;2023-12-20T12:54:06;3.73;;;1.83;;
17451;SDS011;8843;48.838;9.324;2023-12-20T12:56:34;5.90;;;1.80;;
17451;SDS011;8843;48.838;9.324;2023-12-20T12:59:01;4.53;;;1.87;;
17451;SDS011;8843;48.838;9.324;2023-12-20T13:01:29;4.90;;;1.80;;
17451;SDS011;8843;48.838;9.324;2023-12-20T13:03:56;5.50;;;1.70;;
17451;SDS011;8843;48.838;9.324;2023-12-20T13:06:22;4.83;;;2.07;;
17451;SDS011;8843;48.838;9.324;2023-12-20T13:08:51;3.40;;;1.53;;
17451;SDS011;8843;48.838;9.324;2023-12-20T13:11:17;3.30;;;1.77;;
17451;SDS011;8843;48.838;9.324;2023-12-20T13:13:44;3.87;;;1.50;;
17451;SDS011;8843;48.838;9.324;2023-12-20T13:16:12;4.87;;;2.10;;
17451;SDS011;8843;48.838;9.324;2023-12-20T13:18:39;7.03;;;2.10;;
17451;SDS011;8843;48.838;9.324;2023-12-20T13:21:07;5.27;;;2.47;;
17451;SDS011;8843;48.838;9.324;2023-12-20T13:23:34;3.43;;;1.60;;
17451;SDS011;8843;48.838;9.324;2023-12-20T13:26:02;3.03;;;1.53;;
17451;SDS011;8843;48.838;9.324;2023-12-20T13:28:29;5.30;;;1.47;;
17451;SDS011;8843;48.838;9.324;2023-12-20T13:30:56;5.30;;;2.00;;
17451;SDS011;8843;48.838;9.324;2023-12-20T13:33:23;4.67;;;1.63;;
17451;SDS011;8843;48.838;9.324;2023-12-20T13:35:50;5.83;;;1.53;;
17451;SDS011;8843;48.838;9.324;2023-12-20T13:38:17;3.10;;;1.40;;
17451;SDS011;8843;48.838;9.324;2023-12-20T13:40:44;7.13;;;2.10;;
17451;SDS011;8843;48.838;9.324;2023-12-20T13:43:13;4.50;;;1.50;;
17451;SDS011;8843;48.838;9.324;2023-12-20T13:45:43;3.53;;;1.67;;
17451;SDS011;8843;48.838;9.324;2023-12-20T13:48:09;4.30;;;1.47;;
17451;SDS011;8843;48.838;9.324;2023-12-20T13:50:36;4.17;;;1.80;;
17451;SDS011;8843;48.838;9.324;2023-12-20T13:53:03;2.63;;;1.17;;
17451;SDS011;8843;48.838;9.324;2023-12-20T13:55:30;5.83;;;1.60;;
17451;SDS011;8843;48.838;9.324;2023-12-20T13:57:57;2.83;;;1.50;;
17451;SDS011;8843;48.838;9.324;2023-12-20T14:00:25;2.20;;;1.43;;
17451;SDS011;8843;48.838;9.324;2023-12-20T14:02:52;3.57;;;1.37;;
17451;SDS011;8843;48.838;9.324;2023-12-20T14:05:19;3.33;;;2.00;;
17451;SDS011;8843;48.838;9.324;2023-12-20T14:07:46;6.47;;;1.70;;
17451;SDS011;8843;48.838;9.324;2023-12-20T14:10:13;4.97;;;1.57;;
17451;SDS011;8843;48.838;9.324;2023-12-20T14:12:40;3.00;;;1.87;;
17451;SDS011;8843;48.838;9.324;2023-12-20T14:15:07;5.17;;;1.53;;
17451;SDS011;8843;48.838;9.324;2023-12-20T14:17:37;3.60;;;1.63;;
17451;SDS011;8843;48.838;9.324;2023-12-20T14:20:05;6.60;;;1.60;;
17451;SDS011;8843;48.838;9.324;2023-12-20T14:22:32;6.77;;;1.77;;
17451;SDS011;8843;48.838;9.324;2023-12-20T14:25:00;3.10;;;1.40;;
17451;SDS011;8843;48.838;9.324;2023-12-20T14:27:27;6.23;;;2.70;;
17451;SDS011;8843;48.838;9.324;2023-12-20T14:29:53;5.27;;;1.67;;
17451;SDS011;8843;48.838;9.324;2023-12-20T14:32:21;2.87;;;1.70;;
17451;SDS011;8843;48.838;9.324;2023-12-20T14:34:49;4.53;;;1.60;;
17451;SDS011;8843;48.838;9.324;2023-12-20T14:37:16;3.37;;;1.60;;
17451;SDS011;8843;48.838;9.324;2023-12-20T14:39:43;2.90;;;1.73;;
17451;SDS011;8843;48.838;9.324;2023-12-20T14:42:09;4.93;;;1.90;;
17451;SDS011;8843;48.838;9.324;2023-12-20T14:44:38;6.83;;;1.57;;
17451;SDS011;8843;48.838;9.324;2023-12-20T14:47:05;3.20;;;1.83;;
17451;SDS011;8843;48.838;9.324;2023-12-20T14:49:32;6.70;;;2.10;;
17451;SDS011;8843;48.838;9.324;2023-12-20T14:52:01;4.73;;;2.23;;
17451;SDS011;8843;48.838;9.324;2023-12-20T14:54:28;4.70;;;1.90;;
17451;SDS011;8843;48.838;9.324;2023-12-20T14:56:55;5.27;;;1.93;;
17451;SDS011;8843;48.838;9.324;2023-12-20T14:59:21;5.67;;;1.80;;
17451;SDS011;8843;48.838;9.324;2023-12-20T15:01:48;3.63;;;1.57;;